Time;durP1;ratioP1;P1;durP2;ratioP2;P2;SDS_P1;SDS_P2;PMS_P1;PMS_P2;Temp;Humidity;BMP_temperature;BMP_pressure;BME280_temperature;BME280_humidity;BME280_pressure;Samples;Min_cycle;Max_cycle;Signal;HPM_P1;HPM_P2
2022/06/28 00:05:00;;;;;;;16.40;14.65;;;;;;;;;;10421836;28;20218;-70
2022/06/28 00:10:01;;;;;;;16.35;14.88;;;;;;;;;;10422129;28;20195;-70
2022/06/28 00:20:22;;;;;;;16.58;15.18;;;;;;;;;;10418049;28;20221;-71
2022/06/28 00:25:23;;;;;;;17.50;15.98;;;;;;;;;;10411360;28;20211;-70
2022/06/28 00:30:24;;;;;;;17.02;15.68;;;;;;;;;;10406685;28;20212;-71
2022/06/28 00:35:25;;;;;;;18.70;16.80;;;;;;;;;;10415952;28;20222;-71
2022/06/28 00:40:26;;;;;;;16.92;15.23;;;;;;;;;;10416355;28;20992;-72
2022/06/28 00:45:27;;;;;;;17.25;15.48;;;;;;;;;;10417682;28;20217;-74
2022/06/28 00:50:29;;;;;;;17.92;16.35;;;;;;;;;;10408900;28;20351;-73
2022/06/28 00:55:30;;;;;;;18.67;16.85;;;;;;;;;;10416493;28;20207;-72
2022/06/28 01:00:35;;;;;;;21.45;17.63;;;;;;;;;;10414505;28;20302;-72
2022/06/28 01:05:36;;;;;;;18.67;16.98;;;;;;;;;;10418340;28;20273;-72
2022/06/28 01:10:38;;;;;;;19.33;17.67;;;;;;;;;;10399746;28;20190;-72
2022/06/28 01:15:41;;;;;;;20.10;18.15;;;;;;;;;;10416939;28;20230;-71
2022/06/28 01:20:46;;;;;;;19.70;17.92;;;;;;;;;;10414959;28;20253;-72
2022/06/28 01:26:04;;;;;;;19.63;17.77;;;;;;;;;;10410920;28;20676;-72
2022/06/28 01:31:17;;;;;;;19.73;17.92;;;;;;;;;;10401644;28;20226;-72
2022/06/28 01:36:20;;;;;;;19.77;17.77;;;;;;;;;;10422324;28;20199;-71
2022/06/28 01:41:33;;;;;;;20.65;18.55;;;;;;;;;;10390317;28;20175;-72
2022/06/28 01:46:51;;;;;;;21.00;18.67;;;;;;;;;;10402388;28;20287;-72
2022/06/28 01:51:54;;;;;;;21.00;18.92;;;;;;;;;;10403807;28;20608;-72
2022/06/28 01:56:55;;;;;;;22.15;19.85;;;;;;;;;;10403702;28;20199;-72
2022/06/28 02:01:59;;;;;;;20.08;18.10;;;;;;;;;;10414065;28;20207;-72
2022/06/28 02:07:06;;;;;;;25.90;21.30;;;;;;;;;;10420260;28;21317;-72
2022/06/28 02:12:12;;;;;;;26.80;21.25;;;;;;;;;;10407234;28;20184;-71
2022/06/28 02:17:13;;;;;;;26.17;22.48;;;;;;;;;;10428284;28;20329;-72
2022/06/28 02:22:14;;;;;;;28.40;23.13;;;;;;;;;;10425139;28;20183;-73
2022/06/28 02:27:15;;;;;;;26.90;23.08;;;;;;;;;;10406997;28;20176;-72
2022/06/28 02:32:17;;;;;;;27.88;23.23;;;;;;;;;;10404972;28;20980;-71
2022/06/28 02:42:39;;;;;;;31.65;24.50;;;;;;;;;;10402159;28;20179;-72
2022/06/28 02:47:40;;;;;;;30.65;24.98;;;;;;;;;;10403147;28;20226;-72
2022/06/28 02:52:41;;;;;;;33.88;25.25;;;;;;;;;;10413171;28;20227;-72
2022/06/28 02:57:42;;;;;;;31.48;24.05;;;;;;;;;;10415104;28;20297;-71
2022/06/28 03:02:44;;;;;;;33.20;25.65;;;;;;;;;;10403492;28;20207;-72
2022/06/28 03:07:47;;;;;;;29.50;24.83;;;;;;;;;;10386716;28;20195;-71
2022/06/28 03:12:48;;;;;;;30.77;25.45;;;;;;;;;;10399357;28;20179;-72
2022/06/28 03:17:49;;;;;;;30.48;27.25;;;;;;;;;;10405567;28;20777;-72
2022/06/28 03:22:50;;;;;;;27.80;24.77;;;;;;;;;;10396839;28;20544;-71
2022/06/28 03:27:52;;;;;;;26.17;23.48;;;;;;;;;;10415812;28;20651;-71
2022/06/28 03:32:53;;;;;;;22.38;20.30;;;;;;;;;;10399931;28;20249;-71
2022/06/28 03:37:59;;;;;;;19.83;18.13;;;;;;;;;;10419269;28;20294;-71
2022/06/28 03:43:21;;;;;;;16.30;14.93;;;;;;;;;;10423732;28;20277;-71
2022/06/28 03:48:22;;;;;;;15.02;13.82;;;;;;;;;;10394986;28;20787;-72
2022/06/28 03:53:52;;;;;;;15.55;12.93;;;;;;;;;;10360718;28;20199;-71
2022/06/28 03:59:02;;;;;;;13.25;12.10;;;;;;;;;;10407667;28;20957;-72
2022/06/28 04:04:03;;;;;;;13.30;12.13;;;;;;;;;;10399523;28;20199;-71
2022/06/28 04:09:05;;;;;;;13.18;12.02;;;;;;;;;;10409398;28;20213;-71
2022/06/28 04:14:06;;;;;;;13.55;12.30;;;;;;;;;;10401190;28;20179;-71
2022/06/28 04:19:08;;;;;;;13.30;12.05;;;;;;;;;;10398559;28;20206;-72
2022/06/28 04:24:22;;;;;;;13.80;12.60;;;;;;;;;;10418425;28;20172;-73
2022/06/28 04:29:32;;;;;;;13.75;12.32;;;;;;;;;;10400055;28;20183;-72
2022/06/28 04:34:34;;;;;;;14.10;11.98;;;;;;;;;;10400073;28;20210;-72
2022/06/28 04:39:35;;;;;;;10.82;9.95;;;;;;;;;;10414780;28;20808;-71
2022/06/28 04:44:42;;;;;;;10.60;9.80;;;;;;;;;;10411620;28;20179;-72
2022/06/28 04:49:46;;;;;;;10.43;9.63;;;;;;;;;;10418711;28;20218;-73
2022/06/28 04:54:47;;;;;;;10.30;9.43;;;;;;;;;;10415130;28;20183;-69
2022/06/28 04:59:55;;;;;;;9.90;9.10;;;;;;;;;;10394726;28;20180;-70
2022/06/28 05:05:08;;;;;;;9.23;8.52;;;;;;;;;;10399611;28;20210;-70
2022/06/28 05:10:12;;;;;;;8.60;8.00;;;;;;;;;;10394826;28;20182;-70
2022/06/28 05:15:20;;;;;;;8.82;8.25;;;;;;;;;;10413889;28;20223;-70
2022/06/28 05:20:39;;;;;;;9.77;9.00;;;;;;;;;;10414608;28;20202;-71
2022/06/28 05:25:41;;;;;;;10.15;9.45;;;;;;;;;;10415924;28;20583;-70
2022/06/28 05:30:43;;;;;;;10.85;10.00;;;;;;;;;;10416751;28;20869;-71
2022/06/28 05:35:44;;;;;;;10.05;9.23;;;;;;;;;;10390466;28;20198;-70
2022/06/28 05:40:46;;;;;;;9.75;8.95;;;;;;;;;;10398759;28;20184;-73
2022/06/28 05:45:47;;;;;;;11.68;10.52;;;;;;;;;;10413066;28;20193;-73
2022/06/28 05:50:48;;;;;;;11.05;10.35;;;;;;;;;;10406947;28;20713;-72
2022/06/28 05:55:50;;;;;;;9.57;8.90;;;;;;;;;;10417941;28;20206;-72
2022/06/28 06:00:51;;;;;;;12.18;11.10;;;;;;;;;;10388348;28;20251;-72
2022/06/28 06:05:52;;;;;;;11.80;11.05;;;;;;;;;;10399539;28;20179;-73
2022/06/28 06:10:53;;;;;;;14.15;12.93;;;;;;;;;;10386158;28;20562;-74
2022/06/28 06:15:54;;;;;;;12.88;11.68;;;;;;;;;;10408494;28;20211;-73
2022/06/28 06:20:55;;;;;;;14.13;12.75;;;;;;;;;;10402699;28;20205;-73
2022/06/28 06:25:57;;;;;;;14.50;13.10;;;;;;;;;;10408693;28;20190;-72
2022/06/28 06:30:58;;;;;;;17.80;13.18;;;;;;;;;;10404774;28;20216;-73
2022/06/28 06:36:28;;;;;;;14.95;12.18;;;;;;;;;;10425393;28;20215;-73
2022/06/28 06:41:29;;;;;;;13.50;12.27;;;;;;;;;;10408983;28;20194;-71
2022/06/28 06:46:31;;;;;;;12.32;11.20;;;;;;;;;;10406007;28;20214;-72
2022/06/28 06:51:32;;;;;;;13.77;11.10;;;;;;;;;;10405515;28;20231;-71
2022/06/28 06:56:33;;;;;;;12.23;11.23;;;;;;;;;;10422004;28;20617;-73
2022/06/28 07:01:35;;;;;;;12.27;11.20;;;;;;;;;;10414412;28;20576;-71
2022/06/28 07:06:38;;;;;;;11.70;10.80;;;;;;;;;;10402423;28;20544;-73
2022/06/28 07:11:39;;;;;;;11.43;10.52;;;;;;;;;;10389082;28;20779;-73
2022/06/28 07:16:41;;;;;;;12.60;11.45;;;;;;;;;;10405443;28;20208;-72
2022/06/28 07:21:44;;;;;;;11.55;10.57;;;;;;;;;;10422322;28;20199;-73
2022/06/28 07:26:45;;;;;;;9.70;8.65;;;;;;;;;;10403332;28;20209;-73
2022/06/28 07:31:46;;;;;;;9.80;9.20;;;;;;;;;;10400406;28;20207;-73
2022/06/28 07:36:49;;;;;;;11.90;9.75;;;;;;;;;;10414271;28;20699;-73
2022/06/28 07:41:53;;;;;;;10.93;10.02;;;;;;;;;;10406297;28;20557;-72
2022/06/28 07:47:17;;;;;;;11.38;10.32;;;;;;;;;;10422583;28;20223;-72
2022/06/28 07:52:34;;;;;;;10.85;10.00;;;;;;;;;;10401852;28;20223;-72
2022/06/28 07:57:38;;;;;;;10.48;9.60;;;;;;;;;;10405037;28;20211;-73
2022/06/28 08:02:39;;;;;;;10.88;9.88;;;;;;;;;;10389100;28;20256;-72
2022/06/28 08:07:41;;;;;;;9.45;8.63;;;;;;;;;;10396755;28;20212;-73
2022/06/28 08:12:42;;;;;;;9.48;8.73;;;;;;;;;;10418300;28;20293;-72
2022/06/28 08:17:43;;;;;;;8.85;8.23;;;;;;;;;;10408617;28;20305;-73
2022/06/28 08:22:47;;;;;;;8.60;7.72;;;;;;;;;;10420124;28;20564;-72
2022/06/28 08:27:49;;;;;;;5.70;5.40;;;;;;;;;;10401646;28;20306;-71
2022/06/28 08:32:50;;;;;;;5.80;5.57;;;;;;;;;;10419679;28;20246;-72
2022/06/28 08:37:52;;;;;;;5.55;5.22;;;;;;;;;;10402946;28;20278;-72
2022/06/28 08:42:54;;;;;;;4.78;4.47;;;;;;;;;;10402578;28;20602;-73
2022/06/28 08:47:56;;;;;;;4.07;3.90;;;;;;;;;;10417691;28;20279;-73
2022/06/28 08:53:00;;;;;;;4.00;3.75;;;;;;;;;;10419821;28;20262;-71
2022/06/28 08:58:02;;;;;;;5.38;4.97;;;;;;;;;;10417625;28;20280;-73
2022/06/28 09:03:03;;;;;;;4.30;3.97;;;;;;;;;;10418607;28;20202;-70
2022/06/28 09:08:07;;;;;;;3.42;3.20;;;;;;;;;;10415730;28;20183;-70
2022/06/28 09:13:09;;;;;;;3.17;3.08;;;;;;;;;;10417922;28;20187;-71
2022/06/28 09:18:10;;;;;;;3.05;2.85;;;;;;;;;;10415125;28;20351;-71
2022/06/28 09:23:21;;;;;;;3.00;2.75;;;;;;;;;;10421320;28;20274;-71
2022/06/28 09:28:23;;;;;;;3.05;2.85;;;;;;;;;;10418798;28;20260;-72
2022/06/28 09:33:28;;;;;;;2.17;2.17;;;;;;;;;;10405076;28;20222;-71
2022/06/28 09:38:33;;;;;;;2.20;2.20;;;;;;;;;;10420234;28;20683;-73
2022/06/28 09:43:34;;;;;;;2.40;2.20;;;;;;;;;;10417750;28;20284;-72
2022/06/28 09:48:36;;;;;;;1.98;1.92;;;;;;;;;;10422763;28;20218;-71
2022/06/28 09:53:44;;;;;;;2.85;2.47;;;;;;;;;;10426428;28;20191;-72
2022/06/28 09:58:46;;;;;;;5.55;1.92;;;;;;;;;;10426917;28;20238;-71
2022/06/28 10:03:48;;;;;;;1.67;1.58;;;;;;;;;;10423083;28;20225;-73
2022/06/28 10:08:52;;;;;;;2.17;1.60;;;;;;;;;;10425595;28;20183;-72
2022/06/28 10:19:16;;;;;;;2.40;1.52;;;;;;;;;;10426008;28;20285;-72
2022/06/28 10:24:18;;;;;;;2.33;1.17;;;;;;;;;;10423572;28;20571;-71
2022/06/28 10:29:19;;;;;;;0.90;0.90;;;;;;;;;;10425049;28;20701;-72
2022/06/28 10:34:23;;;;;;;1.30;1.30;;;;;;;;;;10423316;28;20219;-71
2022/06/28 10:39:25;;;;;;;1.08;0.95;;;;;;;;;;10405369;28;20206;-71
2022/06/28 10:44:27;;;;;;;0.85;0.85;;;;;;;;;;10418676;28;20175;-71
2022/06/28 10:49:46;;;;;;;0.70;0.70;;;;;;;;;;10422302;28;20357;-72
2022/06/28 10:54:56;;;;;;;0.75;0.73;;;;;;;;;;10418858;28;20225;-72
2022/06/28 11:00:00;;;;;;;0.75;0.75;;;;;;;;;;10399050;28;20318;-72
2022/06/28 11:05:06;;;;;;;0.60;0.60;;;;;;;;;;10416197;28;20306;-71
2022/06/28 11:10:10;;;;;;;1.30;0.80;;;;;;;;;;10417728;28;20194;-72
2022/06/28 11:15:12;;;;;;;1.50;0.60;;;;;;;;;;10420050;28;21068;-72
2022/06/28 11:20:15;;;;;;;1.38;0.80;;;;;;;;;;10421752;28;20257;-71
2022/06/28 11:25:18;;;;;;;0.73;0.60;;;;;;;;;;10417999;28;20546;-71
2022/06/28 11:30:20;;;;;;;2.15;0.75;;;;;;;;;;10420839;28;20218;-71
2022/06/28 11:35:23;;;;;;;0.50;0.50;;;;;;;;;;10407022;28;20720;-71
2022/06/28 11:40:27;;;;;;;0.60;0.60;;;;;;;;;;10419835;28;20187;-69
2022/06/28 11:45:30;;;;;;;0.85;0.60;;;;;;;;;;10422520;28;20281;-72
2022/06/28 11:50:44;;;;;;;4.13;0.68;;;;;;;;;;10419962;28;20339;-71
2022/06/28 11:55:47;;;;;;;0.60;0.60;;;;;;;;;;10418597;28;20668;-72
2022/06/28 12:01:07;;;;;;;1.55;0.50;;;;;;;;;;10419813;28;20215;-70
2022/06/28 12:06:12;;;;;;;0.55;0.50;;;;;;;;;;10420133;28;20179;-71
2022/06/28 12:11:32;;;;;;;5.47;0.60;;;;;;;;;;10421554;28;20198;-72
2022/06/28 12:16:44;;;;;;;2.53;0.52;;;;;;;;;;10420420;28;20682;-69
2022/06/28 12:22:03;;;;;;;1.45;0.40;;;;;;;;;;10417829;28;20175;-70
2022/06/28 12:27:04;;;;;;;1.27;0.47;;;;;;;;;;10422378;28;20233;-69
2022/06/28 12:32:06;;;;;;;2.00;0.50;;;;;;;;;;10418701;28;20604;-69
2022/06/28 12:37:07;;;;;;;1.08;0.40;;;;;;;;;;10413163;28;20211;-68
2022/06/28 12:42:08;;;;;;;0.57;0.55;;;;;;;;;;10413211;28;20264;-68
2022/06/28 12:47:10;;;;;;;0.55;0.55;;;;;;;;;;10413067;28;20207;-69
2022/06/28 12:52:11;;;;;;;0.32;0.32;;;;;;;;;;10411194;28;20269;-68
2022/06/28 12:57:12;;;;;;;0.40;0.40;;;;;;;;;;10418603;28;20240;-69
2022/06/28 13:02:13;;;;;;;0.60;0.40;;;;;;;;;;10416347;28;20210;-69
2022/06/28 13:07:16;;;;;;;2.05;0.40;;;;;;;;;;10415966;28;20232;-69
2022/06/28 13:12:17;;;;;;;0.40;0.40;;;;;;;;;;10416075;28;20184;-67
2022/06/28 13:17:18;;;;;;;1.13;0.50;;;;;;;;;;10414704;28;20222;-68
2022/06/28 13:22:20;;;;;;;0.75;0.50;;;;;;;;;;10415805;28;20190;-68
2022/06/28 13:27:21;;;;;;;2.28;0.70;;;;;;;;;;10424881;28;20194;-69
2022/06/28 13:32:22;;;;;;;1.02;0.65;;;;;;;;;;10420737;28;20256;-70
2022/06/28 13:37:27;;;;;;;1.95;0.40;;;;;;;;;;10425990;28;20210;-69
2022/06/28 13:42:28;;;;;;;1.48;0.50;;;;;;;;;;10424724;28;20193;-71
2022/06/28 13:47:29;;;;;;;0.75;0.52;;;;;;;;;;10420563;28;20231;-70
2022/06/28 13:52:30;;;;;;;0.50;0.50;;;;;;;;;;10422497;28;20222;-70
2022/06/28 13:57:31;;;;;;;1.33;0.60;;;;;;;;;;10427964;28;20207;-70
2022/06/28 14:02:32;;;;;;;0.60;0.60;;;;;;;;;;10422078;28;20210;-69
2022/06/28 14:07:33;;;;;;;0.40;0.40;;;;;;;;;;10425274;28;20242;-69
2022/06/28 14:12:34;;;;;;;0.40;0.40;;;;;;;;;;10426483;28;20200;-70
2022/06/28 14:17:35;;;;;;;0.98;0.50;;;;;;;;;;10424922;28;20546;-70
2022/06/28 14:22:36;;;;;;;1.00;0.55;;;;;;;;;;10391508;28;20278;-70
2022/06/28 14:27:38;;;;;;;1.33;0.40;;;;;;;;;;10427367;28;20187;-70
2022/06/28 14:32:39;;;;;;;1.17;0.50;;;;;;;;;;10408090;28;20218;-70
2022/06/28 14:37:40;;;;;;;0.88;0.40;;;;;;;;;;10423378;28;21025;-70
2022/06/28 14:42:41;;;;;;;1.67;0.52;;;;;;;;;;10428162;28;20175;-70
2022/06/28 14:47:42;;;;;;;0.88;0.40;;;;;;;;;;10424252;28;20268;-71
2022/06/28 14:52:43;;;;;;;1.38;0.50;;;;;;;;;;10418943;28;20226;-70
2022/06/28 14:57:45;;;;;;;1.73;0.50;;;;;;;;;;10422648;28;21228;-71
2022/06/28 15:02:46;;;;;;;0.45;0.45;;;;;;;;;;10422570;28;20827;-70
2022/06/28 15:07:47;;;;;;;1.05;0.60;;;;;;;;;;10423766;28;20194;-70
2022/06/28 15:12:48;;;;;;;0.82;0.50;;;;;;;;;;10420470;28;20189;-70
2022/06/28 15:17:50;;;;;;;2.25;0.60;;;;;;;;;;10406687;28;20215;-70
2022/06/28 15:33:31;;;;;;;6.15;0.43;;;;;;;;;;10421697;28;20218;-70
2022/06/28 15:38:33;;;;;;;0.30;0.30;;;;;;;;;;10418457;28;20256;-70
2022/06/28 15:43:34;;;;;;;0.40;0.40;;;;;;;;;;10420314;28;20179;-70
2022/06/28 15:48:35;;;;;;;0.88;0.47;;;;;;;;;;10423799;28;20599;-71
2022/06/28 15:53:37;;;;;;;0.47;0.45;;;;;;;;;;10424775;28;20182;-70
2022/06/28 15:58:38;;;;;;;0.40;0.40;;;;;;;;;;10424907;28;20215;-70
2022/06/28 16:03:39;;;;;;;0.43;0.43;;;;;;;;;;10423841;28;20718;-71
2022/06/28 16:08:40;;;;;;;0.50;0.50;;;;;;;;;;10421478;28;20215;-71
2022/06/28 16:13:41;;;;;;;0.82;0.50;;;;;;;;;;10422988;28;20229;-71
2022/06/28 16:18:42;;;;;;;0.40;0.40;;;;;;;;;;10421140;28;20318;-72
2022/06/28 16:23:43;;;;;;;0.40;0.40;;;;;;;;;;10417888;28;20187;-71
2022/06/28 16:28:44;;;;;;;1.08;0.50;;;;;;;;;;10415862;28;20849;-70
2022/06/28 16:33:45;;;;;;;0.50;0.50;;;;;;;;;;10411234;28;20523;-69
2022/06/28 16:38:46;;;;;;;1.27;0.40;;;;;;;;;;10409026;28;21333;-71
2022/06/28 16:43:47;;;;;;;0.85;0.40;;;;;;;;;;10415283;28;20257;-71
2022/06/28 16:48:48;;;;;;;0.40;0.40;;;;;;;;;;10410838;28;20238;-71
2022/06/28 16:53:49;;;;;;;2.58;0.50;;;;;;;;;;10414810;28;20206;-71
2022/06/28 16:58:50;;;;;;;0.40;0.40;;;;;;;;;;10409622;28;20697;-71
2022/06/28 17:03:52;;;;;;;0.60;0.60;;;;;;;;;;10408039;28;20253;-72
2022/06/28 17:08:53;;;;;;;2.17;0.50;;;;;;;;;;10414870;28;20206;-70
2022/06/28 17:13:54;;;;;;;0.40;0.40;;;;;;;;;;10418659;28;20946;-71
2022/06/28 17:18:55;;;;;;;0.73;0.40;;;;;;;;;;10402665;28;20372;-71
2022/06/28 17:23:56;;;;;;;0.40;0.40;;;;;;;;;;10416092;28;20226;-71
2022/06/28 17:28:57;;;;;;;0.90;0.90;;;;;;;;;;10420647;28;20192;-70
2022/06/28 17:33:58;;;;;;;0.50;0.50;;;;;;;;;;10419884;28;20291;-69
2022/06/28 17:38:59;;;;;;;1.27;0.38;;;;;;;;;;10420084;28;20220;-71
2022/06/28 17:44:00;;;;;;;2.08;0.50;;;;;;;;;;10419943;28;20187;-71
2022/06/28 17:49:01;;;;;;;0.63;0.50;;;;;;;;;;10421788;28;20626;-70
2022/06/28 17:54:02;;;;;;;0.40;0.40;;;;;;;;;;10402706;28;20199;-71
2022/06/28 17:59:03;;;;;;;0.38;0.38;;;;;;;;;;10416979;28;20214;-71
2022/06/28 18:04:05;;;;;;;0.55;0.40;;;;;;;;;;10407951;28;20718;-70
2022/06/28 18:09:08;;;;;;;0.60;0.50;;;;;;;;;;10423946;28;20203;-70
2022/06/28 18:14:09;;;;;;;2.40;0.50;;;;;;;;;;10418901;28;20215;-69
2022/06/28 18:19:10;;;;;;;0.40;0.40;;;;;;;;;;10426761;28;20205;-70
2022/06/28 18:24:11;;;;;;;1.95;0.50;;;;;;;;;;10423214;28;20238;-70
2022/06/28 18:29:13;;;;;;;4.88;0.50;;;;;;;;;;10424968;28;20266;-70
2022/06/28 18:34:14;;;;;;;0.73;0.40;;;;;;;;;;10425910;28;20239;-70
2022/06/28 18:39:18;;;;;;;1.08;0.35;;;;;;;;;;10404635;28;20232;-69
2022/06/28 18:44:19;;;;;;;0.47;0.40;;;;;;;;;;10424104;28;20694;-69
2022/06/28 18:49:20;;;;;;;1.10;0.30;;;;;;;;;;10424229;28;20257;-70
2022/06/28 18:54:22;;;;;;;0.95;0.40;;;;;;;;;;10427381;28;20681;-70
2022/06/28 18:59:23;;;;;;;0.63;0.50;;;;;;;;;;10428313;28;20218;-70
2022/06/28 19:04:24;;;;;;;0.47;0.40;;;;;;;;;;10419777;28;20694;-70
2022/06/28 19:09:27;;;;;;;3.40;0.68;;;;;;;;;;10425893;28;20194;-70
2022/06/28 19:14:28;;;;;;;0.70;0.70;;;;;;;;;;10425440;28;20265;-70
2022/06/28 19:19:29;;;;;;;1.17;0.50;;;;;;;;;;10425773;28;20656;-71
2022/06/28 19:24:30;;;;;;;0.50;0.50;;;;;;;;;;10404356;28;20653;-70
2022/06/28 19:29:31;;;;;;;0.40;0.40;;;;;;;;;;10426094;28;20273;-71
2022/06/28 19:34:32;;;;;;;0.60;0.60;;;;;;;;;;10411765;28;20611;-72
2022/06/28 19:39:33;;;;;;;0.40;0.40;;;;;;;;;;10424777;28;20352;-71
2022/06/28 19:44:35;;;;;;;1.42;0.40;;;;;;;;;;10420917;28;20652;-72
2022/06/28 19:49:36;;;;;;;1.73;0.50;;;;;;;;;;10421038;28;20226;-72
2022/06/28 19:54:37;;;;;;;2.35;0.50;;;;;;;;;;10423641;28;20214;-71
2022/06/28 19:59:38;;;;;;;1.08;0.60;;;;;;;;;;10426325;28;20203;-71
2022/06/28 20:04:39;;;;;;;3.75;0.40;;;;;;;;;;10423638;28;20304;-76
2022/06/28 20:09:41;;;;;;;0.80;0.50;;;;;;;;;;10420591;28;20761;-71
2022/06/28 20:14:43;;;;;;;0.40;0.40;;;;;;;;;;10426527;28;20271;-70
2022/06/28 20:19:44;;;;;;;2.22;0.52;;;;;;;;;;10424532;28;20203;-70
2022/06/28 20:24:46;;;;;;;3.60;0.43;;;;;;;;;;10420624;28;20936;-71
2022/06/28 20:29:47;;;;;;;3.22;0.50;;;;;;;;;;10392666;28;20191;-70
2022/06/28 20:34:48;;;;;;;2.13;0.40;;;;;;;;;;10417747;28;20254;-69
2022/06/28 20:39:49;;;;;;;4.55;0.60;;;;;;;;;;10412506;28;20330;-70
2022/06/28 20:44:51;;;;;;;1.10;0.55;;;;;;;;;;10417384;28;20189;-71
2022/06/28 20:49:52;;;;;;;0.40;0.40;;;;;;;;;;10414682;28;20317;-70
2022/06/28 20:54:53;;;;;;;1.02;0.40;;;;;;;;;;10419533;28;20202;-70
2022/06/28 20:59:55;;;;;;;0.80;0.40;;;;;;;;;;10415721;28;20713;-70
2022/06/28 21:04:56;;;;;;;0.63;0.63;;;;;;;;;;10420773;28;20844;-71
2022/06/28 21:09:58;;;;;;;0.50;0.50;;;;;;;;;;10418622;28;20278;-70
2022/06/28 21:14:59;;;;;;;0.50;0.50;;;;;;;;;;10402862;28;20194;-71
2022/06/28 21:20:00;;;;;;;0.73;0.50;;;;;;;;;;10418389;28;20204;-71
2022/06/28 21:25:01;;;;;;;1.75;0.52;;;;;;;;;;10419699;28;20678;-71
2022/06/28 21:30:02;;;;;;;2.92;0.60;;;;;;;;;;10416956;28;20270;-71
2022/06/28 21:35:03;;;;;;;0.52;0.50;;;;;;;;;;10420821;28;20225;-71
2022/06/28 21:40:04;;;;;;;0.45;0.45;;;;;;;;;;10420492;28;21992;-71
2022/06/28 21:45:06;;;;;;;3.25;0.57;;;;;;;;;;10411234;28;20194;-71
2022/06/28 21:50:07;;;;;;;0.73;0.63;;;;;;;;;;10427352;28;20234;-71
2022/06/28 21:55:10;;;;;;;0.60;0.60;;;;;;;;;;10432274;28;20192;-71
2022/06/28 22:00:13;;;;;;;0.50;0.50;;;;;;;;;;10427543;28;20203;-72
2022/06/28 22:05:14;;;;;;;0.60;0.60;;;;;;;;;;10419625;28;20839;-71
2022/06/28 22:10:15;;;;;;;1.85;0.60;;;;;;;;;;10425434;28;20222;-72
2022/06/28 22:15:16;;;;;;;0.80;0.80;;;;;;;;;;10427272;28;20568;-72
2022/06/28 22:20:18;;;;;;;1.55;0.77;;;;;;;;;;10422162;28;20214;-71
2022/06/28 22:25:19;;;;;;;1.40;0.73;;;;;;;;;;10426993;28;20285;-72
2022/06/28 22:30:20;;;;;;;0.65;0.60;;;;;;;;;;10424110;28;20310;-72
2022/06/28 22:35:21;;;;;;;0.70;0.70;;;;;;;;;;10412810;28;20196;-71
2022/06/28 22:40:23;;;;;;;0.55;0.55;;;;;;;;;;10423716;28;20202;-72
2022/06/28 22:45:24;;;;;;;0.70;0.70;;;;;;;;;;10419414;28;20190;-71
2022/06/28 22:50:25;;;;;;;1.48;0.80;;;;;;;;;;10426002;28;20316;-71
2022/06/28 22:55:26;;;;;;;0.80;0.80;;;;;;;;;;10417763;28;20183;-72
2022/06/28 23:00:27;;;;;;;0.77;0.77;;;;;;;;;;10401754;28;20214;-72
2022/06/28 23:05:28;;;;;;;0.80;0.80;;;;;;;;;;10426089;28;20175;-71
2022/06/28 23:11:02;;;;;;;1.00;0.90;;;;;;;;;;10419970;28;20281;-70
2022/06/28 23:15:56;;;;;;;2.15;0.90;;;;;;;;;;10413693;28;20670;-71
2022/06/28 23:20:57;;;;;;;1.92;0.80;;;;;;;;;;10424164;28;21216;-71
2022/06/28 23:25:58;;;;;;;1.42;1.33;;;;;;;;;;10422787;28;20214;-72
2022/06/28 23:31:00;;;;;;;1.50;1.27;;;;;;;;;;10420273;28;20318;-73
2022/06/28 23:36:01;;;;;;;1.08;1.00;;;;;;;;;;10422106;28;20207;-72
2022/06/28 23:41:04;;;;;;;1.20;1.20;;;;;;;;;;10417280;28;20183;-72
2022/06/28 23:46:05;;;;;;;1.00;1.00;;;;;;;;;;10419599;28;20277;-72
2022/06/28 23:51:06;;;;;;;0.95;0.90;;;;;;;;;;10418447;28;20222;-73
2022/06/28 23:56:07;;;;;;;1.75;1.20;;;;;;;;;;10421469;28;20242;-72
